Bottle Hollow, Utah
Current Conditions -  °F | °C
As of 3:53 PM on Monday 20 Oct 2014 (Local Time) from KVEL Reporting Station
Clear Clear  
Wind Chill: 69°   Ceiling: Unl
Heat Index: 69°   Visibility: 10mi
Dew Point: 38°   Wind: 3mph
Humidity: 32%   Direction: 170°S
Pressure: 30.09"   Gusts: NA
Location:  40.2958°N, 109.84°W
Report Text: KVEL 202153Z AUTO 17003KT 10SM CLR 21/03 A3009 RMK AO2 SLP150 T02060033
Loading
Personal Weather Stations






























Interactive Weather Map
Tropical Storm Tracking
New forecast layout! Learn more

10-Day Weather Forecast

Advertisements
Track Severe Weather on mobile